createdAt,value
2019-02-16T00:00:38.757Z,5.10
2019-02-16T00:03:07.256Z,5.10
2019-02-16T00:05:35.737Z,5.10
2019-02-16T00:08:04.337Z,5.20
2019-02-16T00:10:32.858Z,5.20
2019-02-16T00:13:01.320Z,5.30
2019-02-16T00:15:29.888Z,5.30
2019-02-16T00:17:58.318Z,5.30
2019-02-16T00:20:26.885Z,5.30
2019-02-16T00:22:55.356Z,5.30
2019-02-16T00:25:23.864Z,5.30
2019-02-16T00:27:52.350Z,5.30
2019-02-16T00:30:20.920Z,5.30
2019-02-16T00:32:50.007Z,5.20
2019-02-16T00:35:18.506Z,5.10
2019-02-16T00:37:47.015Z,5.10
2019-02-16T00:40:15.414Z,5.10
2019-02-16T00:42:43.934Z,5.20
2019-02-16T00:45:12.336Z,5.20
2019-02-16T00:47:40.841Z,5.20
2019-02-16T00:50:09.388Z,5.10
2019-02-16T00:52:37.857Z,5.10
2019-02-16T00:55:06.799Z,5.10
2019-02-16T00:57:35.276Z,5.10
2019-02-16T01:00:04.724Z,5.00
2019-02-16T01:02:33.160Z,5.00
2019-02-16T01:05:01.712Z,4.90
2019-02-16T01:07:30.212Z,4.80
2019-02-16T01:09:58.713Z,4.70
2019-02-16T01:12:27.260Z,4.60
2019-02-16T01:14:55.771Z,4.50
2019-02-16T01:17:24.320Z,4.50
2019-02-16T01:19:52.867Z,4.50
2019-02-16T01:22:21.265Z,4.50
2019-02-16T01:24:50.804Z,4.40
2019-02-16T01:27:19.203Z,4.40
2019-02-16T01:29:47.702Z,4.40
2019-02-16T01:32:16.342Z,4.40
2019-02-16T01:34:45.794Z,4.30
2019-02-16T01:37:14.261Z,4.30
2019-02-16T01:39:42.763Z,4.20
2019-02-16T01:42:11.385Z,4.20
2019-02-16T01:44:39.890Z,4.10
2019-02-16T01:47:08.460Z,4.20
2019-02-16T01:49:49.691Z,4.20
2019-02-16T01:52:18.164Z,4.20
2019-02-16T01:54:46.703Z,4.20
2019-02-16T01:57:15.219Z,4.20
2019-02-16T01:59:43.683Z,4.20
2019-02-16T02:02:12.193Z,4.10
2019-02-16T02:04:40.767Z,4.20
2019-02-16T02:07:09.237Z,4.10
2019-02-16T02:09:37.774Z,4.10
2019-02-16T02:12:06.251Z,4.10
2019-02-16T02:14:34.715Z,4.10
2019-02-16T02:17:03.240Z,4.10
2019-02-16T02:19:31.670Z,4.00
2019-02-16T02:22:00.228Z,4.00
2019-02-16T02:24:28.808Z,4.00
2019-02-16T02:26:57.224Z,4.00
2019-02-16T02:29:25.804Z,4.00
2019-02-16T02:31:54.300Z,3.90
2019-02-16T02:34:22.867Z,3.90
2019-02-16T02:36:51.416Z,3.90
2019-02-16T02:39:19.889Z,3.90
2019-02-16T02:41:48.282Z,3.80
2019-02-16T02:44:16.903Z,3.80
2019-02-16T02:46:45.431Z,3.80
2019-02-16T02:49:13.895Z,3.80
2019-02-16T02:51:51.667Z,3.70
2019-02-16T02:54:12.525Z,3.70
2019-02-16T02:56:41.024Z,3.70
2019-02-16T02:59:09.563Z,3.60
2019-02-16T03:01:38.037Z,3.60
2019-02-16T03:04:06.537Z,3.60
2019-02-16T03:06:35.015Z,3.60
2019-02-16T03:09:04.947Z,3.60
2019-02-16T03:11:33.431Z,3.70
2019-02-16T03:14:01.932Z,3.60
2019-02-16T03:16:30.339Z,3.70
2019-02-16T03:18:58.820Z,3.70
2019-02-16T03:21:27.331Z,3.70
2019-02-16T03:23:55.887Z,3.70
2019-02-16T03:26:39.693Z,3.70
2019-02-16T03:29:17.165Z,3.70
2019-02-16T03:31:58.999Z,3.70
2019-02-16T03:34:40.115Z,3.70
2019-02-16T03:37:53.732Z,3.70
2019-02-16T03:40:22.280Z,3.70
2019-02-16T03:42:50.812Z,3.70
2019-02-16T03:45:19.324Z,3.80
2019-02-16T03:47:47.981Z,3.80
2019-02-16T03:50:16.479Z,3.80
2019-02-16T03:52:44.955Z,3.80
2019-02-16T03:55:13.443Z,3.80
2019-02-16T03:58:01.247Z,3.80
2019-02-16T04:00:29.705Z,3.80
2019-02-16T04:02:58.180Z,3.80
2019-02-16T04:05:26.732Z,3.80
2019-02-16T04:07:55.179Z,3.70
2019-02-16T04:10:23.732Z,3.70
2019-02-16T04:12:52.240Z,3.70
2019-02-16T04:15:20.726Z,3.60
2019-02-16T04:17:49.176Z,3.60
2019-02-16T04:20:17.663Z,3.60
2019-02-16T04:22:46.037Z,3.60
2019-02-16T04:25:14.512Z,3.50
2019-02-16T04:27:43.111Z,3.50
2019-02-16T04:30:11.574Z,3.50
2019-02-16T04:32:40.050Z,3.50
2019-02-16T04:35:08.679Z,3.40
2019-02-16T04:37:37.185Z,3.40
2019-02-16T04:40:05.874Z,3.40
2019-02-16T04:42:34.499Z,3.30
2019-02-16T04:45:03.317Z,3.30
2019-02-16T04:47:31.779Z,3.20
2019-02-16T04:50:00.345Z,3.30
2019-02-16T04:52:34.876Z,3.20
2019-02-16T04:54:58.963Z,3.20
2019-02-16T04:57:27.602Z,3.30
2019-02-16T04:59:56.006Z,3.30
2019-02-16T05:02:24.509Z,3.20
2019-02-16T05:04:53.085Z,3.10
2019-02-16T05:07:21.534Z,3.10
2019-02-16T05:09:50.007Z,3.20
2019-02-16T05:12:18.423Z,3.20
2019-02-16T05:14:47.139Z,3.20
2019-02-16T05:17:15.757Z,3.10
2019-02-16T05:19:44.179Z,3.10
2019-02-16T05:22:12.788Z,3.10
2019-02-16T05:24:42.352Z,3.10
2019-02-16T05:27:10.830Z,3.10
2019-02-16T05:29:39.375Z,3.10
2019-02-16T05:32:07.908Z,3.00
2019-02-16T05:34:36.472Z,3.00
2019-02-16T05:37:05.001Z,3.00
2019-02-16T05:39:33.509Z,3.00
2019-02-16T05:42:01.934Z,3.00
2019-02-16T05:44:30.508Z,3.00
2019-02-16T05:46:58.995Z,3.00
2019-02-16T05:49:27.459Z,3.00
2019-02-16T05:51:55.988Z,3.10
2019-02-16T05:54:24.392Z,3.10
2019-02-16T05:56:52.802Z,3.10
2019-02-16T05:59:21.376Z,3.10
2019-02-16T06:01:54.033Z,3.10
2019-02-16T06:04:19.984Z,3.00
2019-02-16T06:06:48.467Z,3.10
2019-02-16T06:09:16.872Z,3.10
2019-02-16T06:11:45.407Z,3.10
2019-02-16T06:14:13.894Z,3.10
2019-02-16T06:16:42.337Z,3.10
2019-02-16T06:19:10.859Z,3.10
2019-02-16T06:21:39.247Z,3.10
2019-02-16T06:24:07.753Z,3.10
2019-02-16T06:26:36.205Z,3.10
2019-02-16T06:29:04.657Z,3.20
2019-02-16T06:31:33.160Z,3.30
2019-02-16T06:34:01.649Z,3.30
2019-02-16T06:36:31.707Z,3.30
2019-02-16T06:39:00.199Z,3.30
2019-02-16T06:41:28.943Z,3.30
2019-02-16T06:43:57.444Z,3.30
2019-02-16T06:46:25.836Z,3.30
2019-02-16T06:48:54.349Z,3.40
2019-02-16T06:51:22.846Z,3.40
2019-02-16T06:53:51.295Z,3.50
2019-02-16T06:56:27.191Z,3.50
2019-02-16T06:58:55.748Z,3.50
2019-02-16T07:01:24.283Z,3.50
2019-02-16T07:03:52.676Z,3.60
2019-02-16T07:06:21.208Z,3.60
2019-02-16T07:08:49.733Z,3.70
2019-02-16T07:11:18.245Z,3.70
2019-02-16T07:13:46.735Z,3.80
2019-02-16T07:16:25.762Z,3.80
2019-02-16T07:19:01.534Z,3.90
2019-02-16T07:21:30.200Z,3.80
2019-02-16T07:23:58.582Z,3.80
2019-02-16T07:26:26.998Z,3.80
2019-02-16T07:28:55.515Z,3.80
2019-02-16T07:31:24.021Z,3.80
2019-02-16T07:33:52.456Z,3.80
2019-02-16T07:36:22.194Z,3.80
2019-02-16T07:38:50.948Z,3.80
2019-02-16T07:41:19.360Z,3.80
2019-02-16T07:43:49.437Z,3.80
2019-02-16T07:46:22.339Z,3.90
2019-02-16T07:48:52.413Z,3.90
2019-02-16T07:51:22.477Z,4.00
2019-02-16T07:54:01.784Z,4.00
2019-02-16T07:56:31.851Z,4.10
2019-02-16T07:59:01.988Z,4.10
2019-02-16T08:01:35.252Z,4.10
2019-02-16T08:04:08.035Z,4.20
2019-02-16T08:06:38.087Z,4.20
2019-02-16T08:09:08.128Z,4.30
2019-02-16T08:11:38.437Z,4.30
2019-02-16T08:14:14.347Z,4.40
2019-02-16T08:16:59.557Z,4.40
2019-02-16T08:19:29.594Z,4.60
2019-02-16T08:21:59.686Z,4.60
2019-02-16T08:24:35.627Z,4.70
2019-02-16T08:27:05.660Z,4.90
2019-02-16T08:30:01.479Z,4.90
2019-02-16T08:32:55.842Z,4.90
2019-02-16T08:35:28.616Z,5.00
2019-02-16T08:38:15.379Z,5.00
2019-02-16T08:40:57.329Z,5.10
2019-02-16T08:43:44.030Z,5.20
2019-02-16T08:46:30.625Z,5.20
2019-02-16T08:49:19.021Z,5.40
2019-02-16T08:51:58.424Z,5.60
2019-02-16T08:54:46.746Z,5.70
2019-02-16T08:57:26.232Z,5.60
2019-02-16T08:59:56.294Z,5.70
2019-02-16T09:02:38.591Z,5.70
2019-02-16T09:05:20.420Z,5.80
2019-02-16T09:07:56.163Z,5.80
2019-02-16T09:10:38.474Z,5.90
2019-02-16T09:13:14.402Z,5.90
2019-02-16T09:15:44.444Z,6.00
2019-02-16T09:18:36.563Z,6.10
2019-02-16T09:21:14.810Z,6.30
2019-02-16T09:24:02.086Z,6.40
2019-02-16T09:26:40.888Z,6.50
2019-02-16T09:29:13.567Z,6.80
2019-02-16T09:31:46.219Z,6.90
2019-02-16T09:34:25.289Z,7.00
2019-02-16T09:37:10.624Z,7.20
2019-02-16T09:39:40.851Z,7.20
2019-02-16T09:42:23.043Z,7.30
2019-02-16T09:45:00.735Z,7.40
2019-02-16T09:47:36.653Z,7.60
2019-02-16T09:50:08.148Z,7.70
2019-02-16T09:52:38.219Z,7.80
2019-02-16T09:55:08.872Z,8.00
2019-02-16T09:57:51.399Z,8.10
2019-02-16T10:00:38.135Z,8.20
2019-02-16T10:03:17.571Z,8.50
2019-02-16T10:05:53.280Z,8.50
2019-02-16T10:08:23.353Z,8.70
2019-02-16T10:11:09.963Z,8.70
2019-02-16T10:13:42.823Z,8.80
2019-02-16T10:16:25.040Z,8.90
2019-02-16T10:18:55.156Z,8.90
2019-02-16T10:21:25.240Z,9.00
2019-02-16T10:24:04.420Z,9.10
2019-02-16T10:26:34.551Z,9.20
2019-02-16T10:29:07.392Z,9.30
2019-02-16T10:31:37.541Z,9.40
2019-02-16T10:34:16.881Z,9.50
2019-02-16T10:37:03.384Z,9.70
2019-02-16T10:39:33.496Z,9.80
2019-02-16T10:42:03.544Z,9.90
2019-02-16T10:44:48.884Z,10.00
2019-02-16T10:50:27.228Z,10.20
2019-02-16T10:52:59.986Z,10.20
2019-02-16T10:55:46.966Z,10.40
2019-02-16T10:58:17.036Z,10.50
2019-02-16T11:01:02.547Z,10.60
2019-02-16T11:03:51.035Z,10.70
2019-02-16T11:06:23.890Z,10.70
2019-02-16T11:09:10.274Z,10.80
2019-02-16T11:11:45.518Z,10.90
2019-02-16T11:14:27.647Z,11.00
2019-02-16T11:17:03.457Z,11.10
2019-02-16T11:19:48.941Z,11.10
2019-02-16T11:22:22.128Z,11.30
2019-02-16T11:24:58.145Z,11.30
2019-02-16T11:27:44.356Z,11.50
2019-02-16T11:30:32.652Z,11.50
2019-02-16T11:33:02.733Z,11.50
2019-02-16T11:35:35.847Z,11.60
2019-02-16T11:38:05.981Z,11.60
2019-02-16T11:40:41.946Z,11.70
2019-02-16T11:43:18.071Z,11.80
2019-02-16T11:45:50.915Z,11.90
2019-02-16T11:48:30.119Z,11.90
2019-02-16T11:51:03.653Z,12.10
2019-02-16T11:53:36.695Z,12.10
2019-02-16T11:56:09.517Z,12.10
2019-02-16T11:58:45.711Z,12.20
2019-02-16T12:01:24.902Z,12.30
2019-02-16T12:04:07.117Z,12.40
2019-02-16T12:06:37.275Z,12.50
2019-02-16T12:09:24.235Z,12.50
2019-02-16T12:12:00.191Z,12.60
2019-02-16T12:14:30.235Z,12.60
2019-02-16T12:17:03.223Z,12.60
2019-02-16T12:19:51.418Z,12.70
2019-02-16T12:22:21.551Z,12.70
2019-02-16T12:25:06.694Z,12.80
2019-02-16T12:27:53.324Z,13.00
2019-02-16T12:30:23.363Z,13.10
2019-02-16T12:32:56.743Z,13.10
2019-02-16T12:35:26.864Z,13.10
2019-02-16T12:38:02.728Z,13.30
2019-02-16T12:40:41.632Z,13.40
2019-02-16T12:43:14.849Z,13.40
2019-02-16T12:45:50.933Z,13.50
2019-02-16T12:48:19.714Z,13.60
2019-02-16T12:50:52.910Z,13.60
2019-02-16T12:53:23.084Z,13.70
2019-02-16T12:55:56.184Z,13.90
2019-02-16T12:58:35.167Z,15.90
2019-02-16T13:01:11.080Z,18.70
2019-02-16T13:03:41.130Z,20.90
2019-02-16T13:06:11.177Z,22.30
2019-02-16T13:08:41.388Z,22.80
2019-02-16T13:11:11.512Z,23.40
2019-02-16T13:13:53.904Z,23.80
2019-02-16T13:16:27.008Z,24.30
2019-02-16T13:19:00.312Z,24.50
2019-02-16T13:21:30.388Z,24.60
2019-02-16T13:24:06.273Z,24.90
2019-02-16T13:26:51.579Z,25.20
2019-02-16T13:29:27.654Z,25.50
2019-02-16T13:31:57.801Z,25.30
2019-02-16T13:34:30.889Z,25.40
2019-02-16T13:37:03.624Z,25.70
2019-02-16T13:39:36.626Z,25.80
2019-02-16T13:42:06.704Z,26.00
2019-02-16T13:44:45.591Z,25.80
2019-02-16T13:47:34.121Z,25.80
2019-02-16T13:50:04.170Z,25.60
2019-02-16T13:52:37.226Z,25.30
2019-02-16T13:55:13.351Z,25.40
2019-02-16T13:57:46.345Z,25.80
2019-02-16T14:00:16.475Z,26.10
2019-02-16T14:02:58.691Z,26.40
2019-02-16T14:05:28.840Z,26.20
2019-02-16T14:08:14.033Z,26.40
2019-02-16T14:10:50.023Z,26.40
2019-02-16T14:13:20.168Z,26.00
2019-02-16T14:15:53.181Z,26.00
2019-02-16T14:18:21.677Z,25.10
2019-02-16T14:20:50.190Z,24.10
2019-02-16T14:23:18.747Z,23.60
2019-02-16T14:25:47.216Z,24.00
2019-02-16T14:28:15.626Z,23.60
2019-02-16T14:30:44.148Z,22.90
2019-02-16T14:33:12.638Z,22.30
2019-02-16T14:35:41.116Z,22.60
2019-02-16T14:38:11.231Z,22.70
2019-02-16T14:40:39.722Z,22.90
2019-02-16T14:43:08.169Z,23.20
2019-02-16T14:45:38.316Z,23.20
2019-02-16T14:48:06.791Z,23.50
2019-02-16T14:50:35.300Z,23.40
2019-02-16T14:53:03.953Z,23.20
2019-02-16T14:55:32.451Z,23.20
2019-02-16T14:58:01.893Z,23.50
2019-02-16T15:00:30.355Z,23.10
2019-02-16T15:02:58.850Z,23.30
2019-02-16T15:05:27.423Z,23.00
2019-02-16T15:07:55.976Z,22.60
2019-02-16T15:10:24.417Z,22.20
2019-02-16T15:12:52.883Z,22.10
2019-02-16T15:15:21.512Z,21.80
2019-02-16T15:17:50.024Z,21.50
2019-02-16T15:20:18.536Z,21.30
2019-02-16T15:22:47.049Z,21.20
2019-02-16T15:25:16.135Z,21.50
2019-02-16T15:27:44.627Z,21.90
2019-02-16T15:30:20.857Z,21.90
2019-02-16T15:32:49.407Z,22.00
2019-02-16T15:35:17.889Z,21.90
2019-02-16T15:37:46.439Z,21.90
2019-02-16T15:40:17.438Z,21.80
2019-02-16T15:42:51.935Z,21.70
2019-02-16T15:45:20.839Z,21.70
2019-02-16T15:47:49.501Z,21.50
2019-02-16T15:50:18.023Z,21.30
2019-02-16T15:52:46.515Z,21.00
2019-02-16T15:55:15.019Z,20.70
2019-02-16T15:57:43.572Z,20.40
2019-02-16T16:00:21.971Z,20.10
2019-02-16T16:02:51.481Z,19.70
2019-02-16T16:05:19.895Z,19.50
2019-02-16T16:07:50.075Z,19.40
2019-02-16T16:10:23.382Z,19.30
2019-02-16T16:13:05.784Z,19.00
2019-02-16T16:15:41.764Z,18.70
2019-02-16T16:18:16.587Z,18.00
2019-02-16T16:20:46.632Z,17.50
2019-02-16T16:23:33.037Z,17.10
2019-02-16T16:26:19.018Z,16.60
2019-02-16T16:28:46.792Z,15.90
2019-02-16T16:31:25.696Z,15.30
2019-02-16T16:33:58.806Z,14.90
2019-02-16T16:36:43.996Z,14.60
2019-02-16T16:39:14.134Z,14.20
2019-02-16T16:42:02.316Z,13.90
2019-02-16T16:44:36.816Z,13.70
2019-02-16T16:47:23.443Z,13.50
2019-02-16T16:50:18.829Z,13.30
2019-02-16T16:52:52.000Z,13.00
2019-02-16T16:55:28.352Z,12.90
2019-02-16T16:57:58.473Z,12.70
2019-02-16T17:00:44.709Z,12.60
2019-02-16T17:03:29.775Z,12.50
2019-02-16T17:06:11.914Z,12.40
2019-02-16T17:08:45.794Z,12.30
2019-02-16T17:11:15.901Z,12.20
2019-02-16T17:13:45.905Z,12.10
2019-02-16T17:16:31.430Z,12.00
2019-02-16T17:19:04.521Z,11.90
2019-02-16T17:21:40.651Z,11.80
2019-02-16T17:24:31.090Z,11.70
2019-02-16T17:27:01.192Z,11.60
2019-02-16T17:29:34.103Z,11.50
2019-02-16T17:32:22.470Z,11.40
2019-02-16T17:34:52.515Z,11.30
2019-02-16T17:37:31.283Z,11.20
2019-02-16T17:40:19.327Z,11.20
2019-02-16T17:42:52.032Z,11.10
2019-02-16T17:45:25.144Z,11.00
2019-02-16T17:47:57.797Z,10.90
2019-02-16T17:50:33.694Z,10.90
2019-02-16T17:53:09.411Z,10.80
2019-02-16T17:55:51.632Z,10.70
2019-02-16T17:58:27.808Z,10.60
2019-02-16T18:01:03.871Z,10.60
2019-02-16T18:03:33.900Z,10.50
2019-02-16T18:06:03.966Z,10.40
2019-02-16T18:08:38.183Z,10.40
2019-02-16T18:11:20.253Z,10.30
2019-02-16T18:13:53.193Z,10.30
2019-02-16T18:16:26.131Z,10.20
2019-02-16T18:19:12.754Z,10.10
2019-02-16T18:21:42.836Z,10.00
2019-02-16T18:24:25.179Z,9.90
2019-02-16T18:26:56.770Z,9.80
2019-02-16T18:29:29.857Z,9.70
2019-02-16T18:31:59.971Z,9.60
2019-02-16T18:34:32.829Z,9.60
2019-02-16T18:37:02.943Z,9.50
2019-02-16T18:39:32.991Z,9.50
2019-02-16T18:42:12.495Z,9.50
2019-02-16T18:44:44.964Z,9.50
2019-02-16T18:47:31.351Z,9.50
2019-02-16T18:50:09.731Z,9.40
2019-02-16T18:52:42.595Z,9.30
2019-02-16T18:55:15.278Z,9.20
2019-02-16T18:57:45.370Z,9.10
2019-02-16T19:00:21.454Z,9.10
2019-02-16T19:03:10.379Z,9.00
2019-02-16T19:05:52.593Z,8.90
2019-02-16T19:08:22.734Z,8.80
2019-02-16T19:11:08.877Z,8.80
2019-02-16T19:13:54.110Z,8.70
2019-02-16T19:16:30.127Z,8.70
2019-02-16T19:19:01.896Z,8.60
2019-02-16T19:21:48.566Z,8.60
2019-02-16T19:24:27.695Z,8.50
2019-02-16T19:27:03.911Z,8.50
2019-02-16T19:29:35.420Z,8.40
2019-02-16T19:32:09.781Z,8.30
2019-02-16T19:34:46.369Z,8.30
2019-02-16T19:37:18.996Z,8.30
2019-02-16T19:39:49.562Z,8.10
2019-02-16T19:42:20.058Z,8.00
2019-02-16T19:45:06.805Z,8.00
2019-02-16T19:47:40.392Z,7.90
2019-02-16T19:50:20.492Z,7.90
2019-02-16T19:52:52.591Z,7.90
2019-02-16T19:55:40.817Z,7.80
2019-02-16T19:58:15.032Z,7.80
2019-02-16T20:00:58.148Z,7.70
2019-02-16T20:03:32.281Z,7.70
2019-02-16T20:06:15.273Z,7.70
2019-02-16T20:08:52.781Z,7.60
2019-02-16T20:11:41.832Z,7.60
2019-02-16T20:14:16.031Z,7.60
2019-02-16T20:16:47.209Z,7.60
2019-02-16T20:19:28.458Z,7.60
2019-02-16T20:22:17.220Z,7.60
2019-02-16T20:25:04.738Z,7.60
2019-02-16T20:27:53.987Z,7.50
2019-02-16T20:30:27.521Z,7.40
2019-02-16T20:33:10.207Z,7.40
2019-02-16T20:35:56.105Z,7.30
2019-02-16T20:38:26.563Z,7.30
2019-02-16T20:40:59.864Z,7.20
2019-02-16T20:43:40.748Z,7.20
2019-02-16T20:46:20.450Z,7.20
2019-02-16T20:48:50.909Z,7.20
2019-02-16T20:51:27.194Z,7.10
2019-02-16T20:54:13.757Z,7.10
2019-02-16T20:56:47.372Z,7.10
2019-02-16T20:59:36.228Z,7.10
2019-02-16T21:02:15.719Z,7.10
2019-02-16T21:04:52.193Z,7.00
2019-02-16T21:07:42.135Z,7.10
2019-02-16T21:10:12.857Z,7.10
2019-02-16T21:12:43.865Z,7.10
2019-02-16T21:15:15.105Z,7.10
2019-02-16T21:18:04.613Z,7.10
2019-02-16T21:20:41.892Z,7.10
2019-02-16T21:23:25.309Z,7.10
2019-02-16T21:25:59.522Z,7.10
2019-02-16T21:28:38.554Z,7.10
2019-02-16T21:31:13.893Z,7.10
2019-02-16T21:33:47.092Z,7.10
2019-02-16T21:36:19.414Z,7.00
2019-02-16T21:39:03.190Z,7.00
2019-02-16T21:41:31.616Z,6.90
2019-02-16T21:44:05.121Z,6.90
2019-02-16T21:46:38.459Z,6.80
2019-02-16T21:49:17.559Z,6.80
2019-02-16T21:51:53.616Z,6.70
2019-02-16T21:54:26.655Z,6.70
2019-02-16T21:57:02.857Z,6.60
2019-02-16T21:59:45.304Z,6.60
2019-02-16T22:02:24.631Z,6.60
2019-02-16T22:04:57.532Z,6.50
2019-02-16T22:07:36.664Z,6.40
2019-02-16T22:10:09.936Z,6.50
2019-02-16T22:12:42.802Z,6.50
2019-02-16T22:15:11.328Z,6.50
2019-02-16T22:17:39.829Z,6.40
2019-02-16T22:20:10.315Z,6.40
2019-02-16T22:22:38.945Z,6.30
2019-02-16T22:25:07.448Z,6.30
2019-02-16T22:27:35.964Z,6.30
2019-02-16T22:30:06.058Z,6.30
2019-02-16T22:32:34.553Z,6.30
2019-02-16T22:35:03.061Z,6.30
2019-02-16T22:37:31.557Z,6.30
2019-02-16T22:40:00.008Z,6.20
2019-02-16T22:42:28.513Z,6.20
2019-02-16T22:44:57.023Z,6.20
2019-02-16T22:47:25.604Z,6.20
2019-02-16T22:49:54.016Z,6.30
2019-02-16T22:52:22.496Z,6.30
2019-02-16T22:54:51.047Z,6.30
2019-02-16T22:57:19.491Z,6.30
2019-02-16T22:59:47.889Z,6.20
2019-02-16T23:02:16.377Z,6.20
2019-02-16T23:04:44.916Z,6.20
2019-02-16T23:07:13.384Z,6.20
2019-02-16T23:09:41.792Z,6.20
2019-02-16T23:12:10.256Z,6.20
2019-02-16T23:14:38.843Z,6.20
2019-02-16T23:17:07.294Z,6.20
2019-02-16T23:19:35.805Z,6.10
2019-02-16T23:22:04.372Z,6.10
2019-02-16T23:24:32.859Z,6.10
2019-02-16T23:27:01.372Z,6.10
2019-02-16T23:29:29.936Z,6.10
2019-02-16T23:31:58.419Z,6.10
2019-02-16T23:34:26.864Z,6.10
2019-02-16T23:36:55.332Z,6.00
2019-02-16T23:39:23.912Z,6.00
2019-02-16T23:41:52.401Z,6.00
2019-02-16T23:44:20.839Z,6.00
2019-02-16T23:46:51.514Z,6.00
2019-02-16T23:49:19.398Z,6.00
2019-02-16T23:51:47.793Z,6.00
2019-02-16T23:54:16.379Z,6.00
2019-02-16T23:56:44.832Z,5.90
2019-02-16T23:59:13.273Z,5.90
